createdAt,value
2022-12-03T00:02:23.412Z,8.83
2022-12-03T00:04:49.791Z,11.17
2022-12-03T00:07:16.055Z,10.97
2022-12-03T00:09:42.326Z,10.33
2022-12-03T00:12:08.563Z,11.43
2022-12-03T00:14:35.577Z,10.57
2022-12-03T00:17:03.938Z,10.73
2022-12-03T00:19:30.675Z,10.03
2022-12-03T00:21:56.803Z,11.47
2022-12-03T00:24:22.946Z,10.83
2022-12-03T00:26:49.111Z,10.97
2022-12-03T00:29:15.286Z,10.40
2022-12-03T00:31:42.375Z,10.43
2022-12-03T00:34:08.575Z,10.97
2022-12-03T00:36:35.396Z,10.63
2022-12-03T00:39:01.598Z,10.17
2022-12-03T00:41:27.727Z,11.03
2022-12-03T00:43:56.735Z,11.23
2022-12-03T00:46:23.002Z,10.77
2022-12-03T00:48:49.207Z,10.90
2022-12-03T00:51:15.432Z,10.93
2022-12-03T00:53:42.197Z,12.00
2022-12-03T00:56:08.547Z,9.90
2022-12-03T00:58:34.703Z,10.97
2022-12-03T01:01:01.069Z,11.17
2022-12-03T01:03:27.424Z,10.67
2022-12-03T01:05:53.813Z,10.27
2022-12-03T01:08:19.977Z,10.07
2022-12-03T01:10:46.761Z,10.23
2022-12-03T01:13:12.984Z,10.30
2022-12-03T01:15:39.203Z,11.43
2022-12-03T01:18:05.428Z,10.73
2022-12-03T01:20:31.599Z,10.53
2022-12-03T01:22:57.742Z,10.37
2022-12-03T01:25:23.959Z,11.90
2022-12-03T01:27:50.753Z,10.87
2022-12-03T01:30:17.081Z,11.10
2022-12-03T01:32:42.994Z,10.33
2022-12-03T01:35:09.500Z,11.53
2022-12-03T01:37:35.708Z,11.37
2022-12-03T01:40:01.869Z,11.70
2022-12-03T01:42:31.485Z,10.47
2022-12-03T01:44:59.212Z,11.23
2022-12-03T01:47:28.027Z,11.30
2022-12-03T01:49:56.455Z,11.30
2022-12-03T01:52:24.683Z,11.73
2022-12-03T01:54:53.522Z,10.70
2022-12-03T01:57:22.083Z,11.10
2022-12-03T01:59:48.838Z,10.90
2022-12-03T02:02:20.255Z,11.30
2022-12-03T02:04:46.527Z,11.27
2022-12-03T02:07:17.858Z,12.07
2022-12-03T02:09:44.014Z,11.40
2022-12-03T02:12:10.490Z,10.87
2022-12-03T02:14:36.723Z,10.33
2022-12-03T02:17:02.863Z,12.03
2022-12-03T02:19:29.730Z,11.93
2022-12-03T02:22:03.131Z,10.87
2022-12-03T02:24:35.248Z,11.07
2022-12-03T02:27:02.140Z,10.87
2022-12-03T02:29:28.303Z,10.83
2022-12-03T02:31:54.586Z,11.30
2022-12-03T02:34:35.037Z,11.90
2022-12-03T02:37:01.747Z,11.13
2022-12-03T02:39:27.935Z,10.97
2022-12-03T02:42:12.371Z,11.40
2022-12-03T02:44:39.305Z,10.53
2022-12-03T02:47:05.524Z,12.13
2022-12-03T02:49:31.699Z,12.57
2022-12-03T02:51:58.055Z,10.90
2022-12-03T02:54:24.240Z,11.50
2022-12-03T02:56:50.413Z,11.23
2022-12-03T02:59:16.618Z,11.57
2022-12-03T03:01:43.570Z,10.43
2022-12-03T03:04:09.746Z,11.70
2022-12-03T03:06:35.902Z,10.53
2022-12-03T03:09:02.759Z,12.10
2022-12-03T03:11:28.975Z,11.80
2022-12-03T03:13:55.473Z,10.30
2022-12-03T03:16:21.706Z,11.53
2022-12-03T03:18:48.603Z,11.83
2022-12-03T03:21:14.828Z,11.17
2022-12-03T03:23:41.012Z,11.37
2022-12-03T03:26:08.743Z,11.50
2022-12-03T03:28:37.691Z,12.83
2022-12-03T03:31:05.299Z,12.23
2022-12-03T03:33:31.735Z,11.10
2022-12-03T03:35:59.676Z,11.40
2022-12-03T03:38:26.779Z,11.43
2022-12-03T03:40:53.239Z,12.07
2022-12-03T03:43:20.078Z,12.37
2022-12-03T03:45:46.291Z,11.93
2022-12-03T03:48:12.719Z,10.90
2022-12-03T03:50:39.447Z,11.73
2022-12-03T03:53:06.436Z,12.87
2022-12-03T03:55:32.903Z,12.60
2022-12-03T03:57:59.054Z,12.87
2022-12-03T04:00:25.510Z,12.50
2022-12-03T04:02:52.026Z,13.23
2022-12-03T04:05:19.668Z,12.53
2022-12-03T04:07:46.269Z,12.57
2022-12-03T04:10:31.931Z,12.60
2022-12-03T04:12:58.043Z,11.53
2022-12-03T04:15:24.762Z,12.37
2022-12-03T04:18:05.628Z,12.27
2022-12-03T04:20:31.810Z,13.17
2022-12-03T04:22:57.669Z,11.37
2022-12-03T04:25:42.563Z,11.83
2022-12-03T04:28:26.850Z,11.33
2022-12-03T04:30:53.101Z,11.03
2022-12-03T04:33:37.551Z,11.73
2022-12-03T04:36:04.077Z,12.40
2022-12-03T04:38:30.216Z,12.60
2022-12-03T04:41:05.926Z,12.93
2022-12-03T04:43:33.687Z,12.37
2022-12-03T04:46:00.160Z,12.47
2022-12-03T04:48:26.719Z,11.73
2022-12-03T04:50:53.191Z,12.23
2022-12-03T04:53:19.319Z,12.23
2022-12-03T04:55:45.583Z,12.53
2022-12-03T04:58:12.482Z,12.27
2022-12-03T05:00:38.720Z,12.30
2022-12-03T05:03:04.964Z,11.60
2022-12-03T05:05:31.266Z,11.37
2022-12-03T05:07:57.446Z,12.97
2022-12-03T05:10:23.664Z,12.37
2022-12-03T05:12:49.807Z,11.37
2022-12-03T05:15:16.587Z,12.37
2022-12-03T05:17:42.779Z,11.40
2022-12-03T05:20:28.015Z,11.17
2022-12-03T05:22:54.139Z,12.07
2022-12-03T05:25:20.377Z,12.23
2022-12-03T05:27:46.534Z,12.27
2022-12-03T05:30:13.397Z,12.53
2022-12-03T05:32:40.472Z,12.10
2022-12-03T05:35:07.094Z,12.40
2022-12-03T05:37:33.260Z,12.53
2022-12-03T05:39:59.403Z,12.10
2022-12-03T05:42:43.915Z,12.33
2022-12-03T05:45:10.440Z,13.10
2022-12-03T05:47:36.580Z,12.03
2022-12-03T05:50:04.155Z,11.57
2022-12-03T05:52:30.322Z,11.93
2022-12-03T05:54:56.647Z,12.43
2022-12-03T05:57:22.994Z,12.23
2022-12-03T05:59:49.122Z,10.73
2022-12-03T06:02:15.537Z,11.97
2022-12-03T06:04:41.729Z,11.87
2022-12-03T06:07:13.575Z,12.00
2022-12-03T06:09:40.207Z,10.37
2022-12-03T06:12:08.182Z,11.23
2022-12-03T06:14:34.924Z,12.43
2022-12-03T06:17:01.687Z,12.10
2022-12-03T06:19:27.855Z,12.27
2022-12-03T06:21:54.728Z,11.80
2022-12-03T06:24:21.608Z,12.23
2022-12-03T06:26:47.774Z,12.57
2022-12-03T06:29:14.134Z,12.87
2022-12-03T06:31:40.425Z,11.27
2022-12-03T06:34:06.722Z,12.37
2022-12-03T06:36:32.939Z,13.00
2022-12-03T06:38:59.173Z,12.03
2022-12-03T06:41:25.912Z,11.60
2022-12-03T06:43:52.068Z,11.70
2022-12-03T06:46:18.261Z,11.53
2022-12-03T06:48:44.418Z,12.03
2022-12-03T06:51:10.595Z,11.63
2022-12-03T06:53:37.143Z,12.77
2022-12-03T06:56:03.594Z,11.50
2022-12-03T06:58:30.369Z,11.10
2022-12-03T07:00:56.489Z,11.40
2022-12-03T07:03:22.725Z,12.57
2022-12-03T07:05:48.969Z,11.57
2022-12-03T07:08:15.156Z,13.10
2022-12-03T07:10:41.481Z,12.37
2022-12-03T07:13:07.649Z,11.90
2022-12-03T07:15:34.512Z,11.13
2022-12-03T07:18:00.719Z,11.57
2022-12-03T07:20:26.999Z,12.10
2022-12-03T07:22:53.328Z,11.43
2022-12-03T07:25:23.140Z,11.57
2022-12-03T07:27:50.094Z,12.30
2022-12-03T07:30:16.982Z,12.20
2022-12-03T07:32:43.812Z,12.20
2022-12-03T07:35:10.010Z,12.80
2022-12-03T07:37:36.395Z,13.03
2022-12-03T07:40:02.835Z,12.03
2022-12-03T07:42:29.221Z,12.60
2022-12-03T07:44:55.989Z,12.53
2022-12-03T07:47:22.484Z,13.00
2022-12-03T07:49:49.488Z,12.40
2022-12-03T07:52:15.784Z,11.93
2022-12-03T07:54:42.144Z,12.83
2022-12-03T07:57:08.326Z,12.43
2022-12-03T07:59:34.603Z,11.63
2022-12-03T08:02:01.827Z,11.83
2022-12-03T08:04:28.163Z,12.00
2022-12-03T08:06:54.982Z,12.87
2022-12-03T08:09:21.210Z,11.60
2022-12-03T08:11:48.184Z,12.50
2022-12-03T08:14:16.307Z,11.50
2022-12-03T08:16:44.115Z,12.40
2022-12-03T08:19:11.370Z,10.70
2022-12-03T08:21:37.987Z,12.27
2022-12-03T08:24:13.157Z,12.20
2022-12-03T08:26:39.321Z,12.03
2022-12-03T08:29:08.327Z,11.27
2022-12-03T08:31:34.660Z,11.77
2022-12-03T08:34:15.356Z,11.03
2022-12-03T08:36:41.551Z,11.10
2022-12-03T08:39:21.705Z,11.73
2022-12-03T08:42:13.806Z,11.57
2022-12-03T08:44:40.462Z,12.17
2022-12-03T08:47:12.223Z,11.23
2022-12-03T08:49:38.709Z,11.60
2022-12-03T08:52:12.033Z,11.83
2022-12-03T08:54:38.868Z,11.27
2022-12-03T08:57:21.301Z,11.60
2022-12-03T08:59:47.644Z,11.43
2022-12-03T09:02:19.810Z,11.37
2022-12-03T09:04:46.357Z,11.60
2022-12-03T09:07:12.601Z,11.77
2022-12-03T09:09:39.715Z,11.93
2022-12-03T09:12:06.401Z,11.67
2022-12-03T09:14:32.616Z,11.37
2022-12-03T09:16:58.840Z,12.30
2022-12-03T09:19:46.221Z,11.80
2022-12-03T09:22:14.399Z,11.73
2022-12-03T09:24:41.199Z,10.73
2022-12-03T09:27:07.428Z,12.20
2022-12-03T09:29:33.657Z,11.97
2022-12-03T09:31:59.974Z,11.07
2022-12-03T09:34:26.288Z,11.43
2022-12-03T09:36:52.417Z,11.70
2022-12-03T09:39:18.573Z,11.47
2022-12-03T09:41:45.723Z,11.97
2022-12-03T09:44:17.590Z,11.83
2022-12-03T09:46:44.042Z,11.33
2022-12-03T09:49:15.823Z,12.37
2022-12-03T09:51:43.261Z,11.73
2022-12-03T09:54:10.120Z,11.07
2022-12-03T09:56:37.419Z,12.40
2022-12-03T09:59:07.051Z,12.07
2022-12-03T10:01:33.942Z,12.80
2022-12-03T10:04:01.265Z,11.57
2022-12-03T10:06:28.597Z,11.73
2022-12-03T10:08:55.151Z,11.97
2022-12-03T10:11:23.654Z,12.20
2022-12-03T10:13:50.312Z,12.23
2022-12-03T10:16:19.936Z,11.30
2022-12-03T10:18:49.023Z,11.50
2022-12-03T10:21:18.875Z,11.93
2022-12-03T10:23:48.364Z,12.17
2022-12-03T10:26:17.107Z,12.40
2022-12-03T10:28:46.031Z,13.27
2022-12-03T10:31:13.207Z,11.63
2022-12-03T10:33:42.255Z,13.27
2022-12-03T10:36:17.483Z,12.77
2022-12-03T10:38:43.808Z,12.80
2022-12-03T10:41:20.795Z,12.80
2022-12-03T10:43:46.920Z,13.10
2022-12-03T10:46:17.208Z,12.10
2022-12-03T10:48:44.123Z,13.07
2022-12-03T10:51:16.290Z,12.43
2022-12-03T10:53:42.443Z,12.97
2022-12-03T10:56:14.966Z,12.33
2022-12-03T10:58:41.475Z,12.87
2022-12-03T11:01:15.063Z,11.83
2022-12-03T11:03:41.543Z,12.70
2022-12-03T11:06:14.033Z,12.10
2022-12-03T11:08:43.267Z,12.00
2022-12-03T11:11:16.657Z,11.57
2022-12-03T11:13:46.277Z,13.00
2022-12-03T11:16:13.828Z,12.57
2022-12-03T11:18:58.598Z,11.70
2022-12-03T11:21:25.383Z,12.23
2022-12-03T11:24:15.409Z,12.67
2022-12-03T11:27:06.316Z,12.73
2022-12-03T11:29:56.170Z,11.77
2022-12-03T11:33:05.707Z,11.60
2022-12-03T11:35:36.395Z,11.73
2022-12-03T11:38:35.912Z,13.10
2022-12-03T11:41:10.105Z,12.10
2022-12-03T11:44:25.658Z,12.43
2022-12-03T11:46:52.176Z,11.97
2022-12-03T11:49:29.835Z,12.97
2022-12-03T11:51:56.562Z,13.80
2022-12-03T11:54:23.415Z,12.47
2022-12-03T11:56:51.851Z,11.77
2022-12-03T11:59:18.139Z,12.43
2022-12-03T12:01:45.178Z,13.13
2022-12-03T12:04:28.428Z,12.23
2022-12-03T12:06:54.630Z,11.97
2022-12-03T12:09:49.065Z,12.87
2022-12-03T12:12:20.392Z,13.37
2022-12-03T12:14:46.741Z,12.53
2022-12-03T12:17:29.391Z,12.40
2022-12-03T12:20:11.317Z,13.17
2022-12-03T12:22:38.510Z,12.73
2022-12-03T12:25:06.062Z,11.43
2022-12-03T12:27:35.323Z,12.80
2022-12-03T12:30:03.625Z,12.63
2022-12-03T12:32:31.342Z,13.17
2022-12-03T12:35:02.429Z,13.83
2022-12-03T12:37:34.132Z,13.50
2022-12-03T12:40:02.225Z,11.93
2022-12-03T12:42:30.954Z,12.97
2022-12-03T12:45:01.085Z,13.20
2022-12-03T12:47:29.549Z,13.67
2022-12-03T12:49:56.092Z,12.70
2022-12-03T12:52:22.476Z,13.17
2022-12-03T12:54:48.600Z,13.03
2022-12-03T12:57:20.745Z,12.03
2022-12-03T12:59:47.013Z,13.73
2022-12-03T13:02:34.456Z,12.63
2022-12-03T13:05:00.816Z,13.57
2022-12-03T13:07:26.998Z,12.70
2022-12-03T13:09:56.289Z,12.67
2022-12-03T13:12:23.864Z,13.27
2022-12-03T13:14:58.985Z,13.03
2022-12-03T13:17:25.766Z,12.57
2022-12-03T13:20:02.036Z,12.17
2022-12-03T13:22:33.142Z,13.03
2022-12-03T13:25:02.972Z,12.90
2022-12-03T13:27:29.510Z,13.33
2022-12-03T13:29:59.211Z,13.90
2022-12-03T13:32:30.127Z,13.73
2022-12-03T13:34:59.198Z,13.90
2022-12-03T13:37:26.717Z,12.93
2022-12-03T13:39:55.799Z,12.83
2022-12-03T13:42:40.163Z,13.10
2022-12-03T13:45:31.142Z,12.73
2022-12-03T13:47:59.666Z,12.87
2022-12-03T13:50:32.235Z,12.83
2022-12-03T13:52:59.702Z,12.87
2022-12-03T13:55:27.392Z,13.60
2022-12-03T13:57:53.550Z,13.77
2022-12-03T14:00:19.920Z,13.20
2022-12-03T14:02:46.162Z,13.47
2022-12-03T14:05:13.026Z,13.63
2022-12-03T14:07:39.237Z,13.57
2022-12-03T14:10:06.883Z,13.27
2022-12-03T14:12:33.060Z,14.37
2022-12-03T14:14:59.588Z,14.07
2022-12-03T14:17:25.775Z,13.77
2022-12-03T14:19:52.609Z,13.50
2022-12-03T14:22:22.657Z,14.37
2022-12-03T14:24:48.947Z,13.30
2022-12-03T14:27:15.099Z,14.50
2022-12-03T14:29:41.244Z,14.93
2022-12-03T14:32:07.515Z,14.30
2022-12-03T14:34:33.802Z,13.70
2022-12-03T14:37:00.083Z,14.73
2022-12-03T14:39:26.843Z,13.53
2022-12-03T14:42:11.274Z,13.20
2022-12-03T14:44:37.447Z,14.07
2022-12-03T14:47:03.675Z,13.00
2022-12-03T14:49:29.866Z,13.50
2022-12-03T14:51:56.143Z,14.57
2022-12-03T14:54:22.394Z,14.70
2022-12-03T14:56:49.269Z,14.67
2022-12-03T14:59:15.591Z,15.30
2022-12-03T15:01:41.757Z,14.20
2022-12-03T15:04:08.167Z,14.00
2022-12-03T15:06:34.352Z,14.83
2022-12-03T15:09:00.899Z,14.97
2022-12-03T15:11:27.239Z,15.60
2022-12-03T15:13:54.112Z,13.90
2022-12-03T15:16:20.341Z,13.77
2022-12-03T15:18:46.621Z,14.43
2022-12-03T15:21:12.875Z,15.53
2022-12-03T15:23:39.004Z,17.27
2022-12-03T15:26:05.513Z,14.10
2022-12-03T15:28:31.766Z,14.90
2022-12-03T15:30:58.593Z,15.73
2022-12-03T15:33:24.874Z,15.07
2022-12-03T15:35:51.148Z,14.80
2022-12-03T15:38:17.382Z,15.97
2022-12-03T15:40:43.490Z,14.67
2022-12-03T15:43:09.769Z,13.83
2022-12-03T15:45:35.971Z,15.43
2022-12-03T15:48:03.247Z,15.30
2022-12-03T15:50:29.415Z,15.60
2022-12-03T15:52:56.272Z,13.13
2022-12-03T15:55:22.732Z,14.47
2022-12-03T15:57:49.238Z,15.60
2022-12-03T16:00:16.746Z,15.67
2022-12-03T16:02:47.542Z,16.20
2022-12-03T16:05:17.768Z,14.87
2022-12-03T16:07:44.019Z,14.87
2022-12-03T16:10:10.723Z,15.13
2022-12-03T16:12:36.920Z,14.67
2022-12-03T16:15:03.433Z,14.20
2022-12-03T16:17:29.582Z,14.17
2022-12-03T16:19:55.999Z,15.13
2022-12-03T16:22:23.210Z,16.53
2022-12-03T16:24:49.437Z,14.43
2022-12-03T16:27:15.589Z,15.30
2022-12-03T16:29:41.748Z,14.50
2022-12-03T16:32:07.872Z,15.47
2022-12-03T16:34:34.025Z,14.27
2022-12-03T16:37:00.201Z,14.97
2022-12-03T16:39:26.965Z,15.13
2022-12-03T16:41:53.177Z,15.77
2022-12-03T16:44:30.602Z,15.43
2022-12-03T16:46:56.788Z,14.60
2022-12-03T16:49:23.214Z,15.50
2022-12-03T16:51:49.339Z,14.67
2022-12-03T16:54:15.491Z,16.33
2022-12-03T16:56:42.213Z,16.00
2022-12-03T16:59:08.357Z,14.87
2022-12-03T17:01:34.615Z,15.27
2022-12-03T17:04:00.775Z,15.20
2022-12-03T17:06:26.927Z,16.20
2022-12-03T17:08:53.085Z,15.93
2022-12-03T17:11:19.274Z,15.53
2022-12-03T17:13:46.231Z,15.33
2022-12-03T17:16:12.418Z,14.63
2022-12-03T17:18:38.618Z,15.50
2022-12-03T17:21:05.830Z,14.87
2022-12-03T17:23:31.985Z,13.63
2022-12-03T17:25:58.157Z,14.70
2022-12-03T17:28:24.283Z,14.97
2022-12-03T17:30:51.115Z,15.47
2022-12-03T17:33:17.337Z,15.63
2022-12-03T17:35:44.735Z,15.53
2022-12-03T17:38:10.903Z,13.93
2022-12-03T17:40:37.026Z,15.63
2022-12-03T17:43:03.226Z,15.77
2022-12-03T17:45:29.955Z,15.03
2022-12-03T17:47:56.728Z,16.03
2022-12-03T17:50:22.898Z,14.53
2022-12-03T17:52:49.084Z,16.20
2022-12-03T17:55:23.960Z,15.17
2022-12-03T17:57:54.237Z,15.07
2022-12-03T18:00:20.534Z,15.97
2022-12-03T18:02:46.655Z,16.20
2022-12-03T18:05:13.782Z,15.20
2022-12-03T18:07:40.121Z,16.10
2022-12-03T18:10:07.778Z,15.43
2022-12-03T18:12:34.189Z,13.70
2022-12-03T18:15:00.393Z,16.00
2022-12-03T18:17:26.554Z,14.97
2022-12-03T18:19:53.268Z,15.30
2022-12-03T18:22:20.307Z,15.53
2022-12-03T18:24:50.236Z,16.07
2022-12-03T18:27:17.884Z,16.03
2022-12-03T18:29:44.030Z,15.17
2022-12-03T18:32:27.037Z,16.13
2022-12-03T18:34:54.298Z,15.70
2022-12-03T18:37:21.337Z,14.63
2022-12-03T18:39:47.498Z,15.67
2022-12-03T18:42:16.464Z,16.23
2022-12-03T18:44:49.301Z,16.03
2022-12-03T18:47:17.828Z,15.53
2022-12-03T18:49:44.148Z,15.23
2022-12-03T18:52:12.122Z,15.57
2022-12-03T18:54:39.276Z,15.57
2022-12-03T18:57:05.543Z,15.03
2022-12-03T18:59:31.759Z,15.57
2022-12-03T19:01:58.004Z,17.27
2022-12-03T19:04:24.444Z,15.37
2022-12-03T19:06:51.724Z,15.57
2022-12-03T19:09:18.431Z,16.27
2022-12-03T19:11:46.609Z,14.10
2022-12-03T19:14:12.821Z,15.50
2022-12-03T19:16:39.984Z,16.53
2022-12-03T19:19:07.570Z,15.70
2022-12-03T19:21:34.142Z,14.93
2022-12-03T19:24:23.156Z,16.30
2022-12-03T19:26:47.352Z,15.87
2022-12-03T19:29:13.637Z,15.03
2022-12-03T19:31:41.418Z,16.10
2022-12-03T19:34:07.862Z,15.40
2022-12-03T19:36:34.073Z,16.23
2022-12-03T19:39:01.058Z,15.70
2022-12-03T19:41:29.772Z,15.20
2022-12-03T19:43:58.005Z,15.67
2022-12-03T19:46:27.882Z,15.57
2022-12-03T19:48:54.371Z,15.83
2022-12-03T19:51:34.127Z,14.87
2022-12-03T19:54:01.703Z,15.53
2022-12-03T19:56:29.392Z,14.43
2022-12-03T19:58:56.675Z,13.80
2022-12-03T20:01:24.779Z,14.57
2022-12-03T20:03:53.227Z,14.77
2022-12-03T20:06:22.327Z,14.73
2022-12-03T20:08:49.306Z,15.47
2022-12-03T20:11:16.859Z,15.00
2022-12-03T20:13:43.735Z,15.10
2022-12-03T20:16:12.411Z,15.10
2022-12-03T20:18:39.631Z,15.27
2022-12-03T20:21:06.589Z,14.53
2022-12-03T20:23:32.964Z,15.30
2022-12-03T20:25:59.937Z,15.17
2022-12-03T20:28:27.711Z,15.20
2022-12-03T20:30:57.721Z,15.50
2022-12-03T20:33:24.878Z,15.73
2022-12-03T20:35:52.207Z,15.10
2022-12-03T20:38:18.520Z,15.93
2022-12-03T20:40:45.031Z,16.23
2022-12-03T20:43:11.194Z,17.23
2022-12-03T20:45:37.502Z,15.77
2022-12-03T20:48:04.640Z,16.63
2022-12-03T20:50:31.584Z,14.77
2022-12-03T20:53:23.278Z,16.33
2022-12-03T20:55:44.104Z,15.13
2022-12-03T20:58:10.443Z,15.97
2022-12-03T21:00:37.190Z,15.70
2022-12-03T21:03:04.752Z,16.50
2022-12-03T21:05:31.650Z,14.50
2022-12-03T21:07:57.973Z,16.30
2022-12-03T21:10:36.236Z,15.40
2022-12-03T21:13:02.733Z,16.43
2022-12-03T21:15:29.209Z,15.73
2022-12-03T21:17:55.411Z,15.70
2022-12-03T21:20:21.658Z,15.00
2022-12-03T21:22:49.771Z,14.87
2022-12-03T21:25:16.134Z,15.13
2022-12-03T21:27:42.317Z,15.13
2022-12-03T21:30:09.094Z,15.90
2022-12-03T21:32:35.342Z,16.10
2022-12-03T21:35:01.627Z,15.00
2022-12-03T21:37:27.763Z,15.37
2022-12-03T21:39:54.961Z,15.93
2022-12-03T21:42:36.636Z,15.60
2022-12-03T21:45:03.908Z,16.10
2022-12-03T21:47:36.638Z,15.63
2022-12-03T21:50:04.684Z,14.90
2022-12-03T21:52:31.243Z,16.23
2022-12-03T21:54:58.016Z,15.43
2022-12-03T21:57:24.215Z,14.37
2022-12-03T21:59:50.384Z,15.97
2022-12-03T22:02:16.618Z,15.50
2022-12-03T22:04:42.919Z,15.27
2022-12-03T22:07:09.209Z,15.37
2022-12-03T22:09:35.490Z,15.63
2022-12-03T22:12:02.381Z,15.87
2022-12-03T22:14:28.841Z,15.27
2022-12-03T22:16:55.100Z,15.50
2022-12-03T22:19:21.743Z,15.70
2022-12-03T22:21:47.950Z,16.50
2022-12-03T22:24:16.243Z,15.93
2022-12-03T22:26:42.486Z,16.67
2022-12-03T22:29:10.371Z,15.93
2022-12-03T22:31:36.862Z,14.03
2022-12-03T22:34:03.053Z,15.80
2022-12-03T22:36:29.263Z,15.70
2022-12-03T22:38:55.416Z,15.63
2022-12-03T22:41:21.652Z,15.10
2022-12-03T22:43:48.393Z,15.63
2022-12-03T22:46:16.146Z,16.23
2022-12-03T22:48:43.822Z,15.43
2022-12-03T22:51:12.377Z,15.37
2022-12-03T22:53:38.484Z,14.90
2022-12-03T22:56:05.078Z,15.37
2022-12-03T22:58:31.286Z,15.30
2022-12-03T23:01:02.618Z,16.43
2022-12-03T23:03:30.354Z,15.20
2022-12-03T23:05:56.583Z,15.10
2022-12-03T23:08:22.774Z,15.50
2022-12-03T23:10:51.023Z,15.23
2022-12-03T23:13:17.838Z,14.93
2022-12-03T23:15:45.019Z,14.87
2022-12-03T23:18:11.334Z,14.87
2022-12-03T23:20:44.458Z,16.03
2022-12-03T23:23:11.060Z,15.00
2022-12-03T23:25:37.199Z,14.90
2022-12-03T23:28:03.472Z,14.20
2022-12-03T23:30:29.591Z,14.93
2022-12-03T23:32:55.726Z,16.00
2022-12-03T23:35:22.015Z,15.10
2022-12-03T23:37:48.928Z,14.27
2022-12-03T23:40:15.260Z,15.70
2022-12-03T23:42:41.387Z,15.67
2022-12-03T23:45:08.600Z,15.13
2022-12-03T23:47:34.786Z,15.83
2022-12-03T23:50:00.978Z,16.23
2022-12-03T23:52:27.111Z,15.20
2022-12-03T23:54:53.863Z,15.00
2022-12-03T23:57:20.028Z,15.97
2022-12-03T23:59:46.178Z,16.43
